Main page
METAR-TAF:

METAR-TAF

Airports :

Guilin, China

Guilin Liangjiang International Airport

latitude: 25-20N, longitude: 110-18E, elevation: 166 m

Current weather observation

The report was made 20 minutes ago, at 10:00 UTC
Wind 6 kt from the South
Temperature 32°C
Humidity 34%
Pressure 1007 hPa
Visibility 10 km or more
no clouds below 1500 m and no cumulonimbus

METAR: ZGKL 281000Z 18003MPS CAVOK 32/14 Q1007 NOSIG

Time: 18:20 (10:20 UTC)

Forecast

The report was made 7 hours and 12 minutes ago, at 03:08 UTC
Forecast valid from 28 at 06 UTC to 29 at 06 UTC
Wind 2 kt from variable directions
Visibility 10 km or more
no clouds below 1500 m and no cumulonimbus

TAF: ZGKL 280308Z 2806/2906 VRB01MPS CAVOK TX33/2808Z TN16/2822Z

Weather observations and forecasts of more than 4000 airports (METAR and TAF reports).

The available stations are represented by yellow and red dots on the map.

Hover mouse over dot to see the name of the station.

Then click to see weather observations and forecasts.

To change the map : click on the green buttons with a black cross to zoom in, on the green button with a dash to zoom out, or on the green arrows for adjacent maps.


METAR-TAF: